sensor_id;sensor_type;location;lat;lon;timestamp;pressure;altitude;pressure_sealevel;temperature;humidity
34185;BME280;20454;48.100;11.776;2023-02-14T00:01:09;97246.41;;;0.48;100.00
34185;BME280;20454;48.100;11.776;2023-02-14T00:03:35;97250.22;;;0.47;100.00
34185;BME280;20454;48.100;11.776;2023-02-14T00:06:11;97250.22;;;0.47;100.00
34185;BME280;20454;48.100;11.776;2023-02-14T00:08:37;97248.53;;;0.46;100.00
34185;BME280;20454;48.100;11.776;2023-02-14T00:11:05;97241.41;;;0.39;100.00
34185;BME280;20454;48.100;11.776;2023-02-14T00:13:33;97254.22;;;0.45;100.00
34185;BME280;20454;48.100;11.776;2023-02-14T00:15:58;97245.59;;;0.41;100.00
34185;BME280;20454;48.100;11.776;2023-02-14T00:18:24;97238.84;;;0.44;100.00
34185;BME280;20454;48.100;11.776;2023-02-14T00:21:09;97247.69;;;0.46;100.00
34185;BME280;20454;48.100;11.776;2023-02-14T00:23:35;97239.69;;;0.44;100.00
34185;BME280;20454;48.100;11.776;2023-02-14T00:26:01;97231.06;;;0.41;100.00
34185;BME280;20454;48.100;11.776;2023-02-14T00:28:26;97243.28;;;0.45;100.00
34185;BME280;20454;48.100;11.776;2023-02-14T00:30:52;97246.63;;;0.47;100.00
34185;BME280;20454;48.100;11.776;2023-02-14T00:33:20;97233.38;;;0.44;100.00
34185;BME280;20454;48.100;11.776;2023-02-14T00:35:46;97237.78;;;0.45;100.00
34185;BME280;20454;48.100;11.776;2023-02-14T00:38:11;97226.88;;;0.38;100.00
34185;BME280;20454;48.100;11.776;2023-02-14T00:40:37;97233.63;;;0.36;100.00
34185;BME280;20454;48.100;11.776;2023-02-14T00:43:03;97230.91;;;0.29;100.00
34185;BME280;20454;48.100;11.776;2023-02-14T00:45:28;97245.22;;;0.31;100.00
34185;BME280;20454;48.100;11.776;2023-02-14T00:47:54;97250.28;;;0.28;100.00
34185;BME280;20454;48.100;11.776;2023-02-14T00:50:20;97252.63;;;0.24;100.00
34185;BME280;20454;48.100;11.776;2023-02-14T00:52:45;97245.25;;;0.18;100.00
34185;BME280;20454;48.100;11.776;2023-02-14T00:55:11;97251.97;;;0.22;100.00
34185;BME280;20454;48.100;11.776;2023-02-14T00:57:37;97241.25;;;0.21;100.00
34185;BME280;20454;48.100;11.776;2023-02-14T01:00:03;97239.16;;;0.23;100.00
34185;BME280;20454;48.100;11.776;2023-02-14T01:02:29;97234.28;;;0.25;100.00
34185;BME280;20454;48.100;11.776;2023-02-14T01:04:55;97241.22;;;0.27;100.00
34185;BME280;20454;48.100;11.776;2023-02-14T01:07:21;97235.97;;;0.26;100.00
34185;BME280;20454;48.100;11.776;2023-02-14T01:09:47;97240.63;;;0.25;100.00
34185;BME280;20454;48.100;11.776;2023-02-14T01:12:12;97233.88;;;0.21;100.00
34185;BME280;20454;48.100;11.776;2023-02-14T01:14:38;97234.72;;;0.22;100.00
34185;BME280;20454;48.100;11.776;2023-02-14T01:17:04;97251.97;;;0.22;100.00
34185;BME280;20454;48.100;11.776;2023-02-14T01:19:29;97240.19;;;0.22;100.00
34185;BME280;20454;48.100;11.776;2023-02-14T01:21:55;97247.75;;;0.20;100.00
34185;BME280;20454;48.100;11.776;2023-02-14T01:24:21;97260.00;;;0.17;100.00
34185;BME280;20454;48.100;11.776;2023-02-14T01:26:46;97265.69;;;0.16;100.00
34185;BME280;20454;48.100;11.776;2023-02-14T01:29:12;97267.56;;;0.15;100.00
34185;BME280;20454;48.100;11.776;2023-02-14T01:31:38;97263.78;;;0.16;100.00
34185;BME280;20454;48.100;11.776;2023-02-14T01:34:03;97271.38;;;0.14;100.00
34185;BME280;20454;48.100;11.776;2023-02-14T01:36:39;97262.13;;;0.09;100.00
34185;BME280;20454;48.100;11.776;2023-02-14T01:39:09;97261.50;;;0.07;100.00
34185;BME280;20454;48.100;11.776;2023-02-14T01:41:37;97252.88;;;0.03;100.00
34185;BME280;20454;48.100;11.776;2023-02-14T01:44:04;97268.84;;;0.06;100.00
34185;BME280;20454;48.100;11.776;2023-02-14T01:46:32;97266.56;;;0.03;100.00
34185;BME280;20454;48.100;11.776;2023-02-14T01:49:09;97269.91;;;0.05;100.00
34185;BME280;20454;48.100;11.776;2023-02-14T01:51:38;97272.84;;;0.04;100.00
34185;BME280;20454;48.100;11.776;2023-02-14T01:54:05;97262.97;;;0.03;100.00
34185;BME280;20454;48.100;11.776;2023-02-14T01:56:43;97260.44;;;0.01;100.00
34185;BME280;20454;48.100;11.776;2023-02-14T01:59:11;97266.56;;;0.03;100.00
34185;BME280;20454;48.100;11.776;2023-02-14T02:01:39;97260.88;;;-0.02;100.00
34185;BME280;20454;48.100;11.776;2023-02-14T02:04:14;97252.25;;;-0.05;100.00
34185;BME280;20454;48.100;11.776;2023-02-14T02:06:48;97257.75;;;-0.05;100.00
34185;BME280;20454;48.100;11.776;2023-02-14T02:09:19;97257.28;;;-0.02;100.00
34185;BME280;20454;48.100;11.776;2023-02-14T02:11:46;97254.56;;;-0.02;100.00
34185;BME280;20454;48.100;11.776;2023-02-14T02:14:15;97253.28;;;0.00;100.00
34185;BME280;20454;48.100;11.776;2023-02-14T02:22:33;97250.97;;;0.04;100.00
34185;BME280;20454;48.100;11.776;2023-02-14T02:30:49;97242.16;;;0.02;100.00
34185;BME280;20454;48.100;11.776;2023-02-14T02:33:38;97240.69;;;-0.01;100.00
34185;BME280;20454;48.100;11.776;2023-02-14T02:41:45;97245.13;;;-0.06;100.00
34185;BME280;20454;48.100;11.776;2023-02-14T02:47:06;97239.66;;;-0.06;100.00
34185;BME280;20454;48.100;11.776;2023-02-14T02:50:01;97230.38;;;-0.05;100.00
34185;BME280;20454;48.100;11.776;2023-02-14T02:56:21;97236.28;;;-0.02;100.00
34185;BME280;20454;48.100;11.776;2023-02-14T05:01:10;97201.22;;;-0.30;100.00
34185;BME280;20454;48.100;11.776;2023-02-14T05:03:36;97198.88;;;-0.33;100.00
34185;BME280;20454;48.100;11.776;2023-02-14T05:06:02;97208.75;;;-0.32;100.00
34185;BME280;20454;48.100;11.776;2023-02-14T05:08:28;97207.50;;;-0.30;100.00
34185;BME280;20454;48.100;11.776;2023-02-14T05:10:53;97199.94;;;-0.34;100.00
34185;BME280;20454;48.100;11.776;2023-02-14T05:13:19;97201.81;;;-0.35;100.00
34185;BME280;20454;48.100;11.776;2023-02-14T05:15:45;97201.41;;;-0.38;100.00
34185;BME280;20454;48.100;11.776;2023-02-14T05:18:10;97206.88;;;-0.38;100.00
34185;BME280;20454;48.100;11.776;2023-02-14T05:20:36;97204.38;;;-0.40;100.00
34185;BME280;20454;48.100;11.776;2023-02-14T05:23:02;97206.47;;;-0.42;100.00
34185;BME280;20454;48.100;11.776;2023-02-14T05:25:30;97195.75;;;-0.43;100.00
34185;BME280;20454;48.100;11.776;2023-02-14T05:27:56;97203.53;;;-0.40;100.00
34185;BME280;20454;48.100;11.776;2023-02-14T05:30:21;97200.56;;;-0.45;100.00
34185;BME280;20454;48.100;11.776;2023-02-14T05:32:51;97190.94;;;-0.48;100.00
34185;BME280;20454;48.100;11.776;2023-02-14T05:35:17;97190.69;;;-0.46;100.00
34185;BME280;20454;48.100;11.776;2023-02-14T05:37:42;97188.63;;;-0.44;100.00
34185;BME280;20454;48.100;11.776;2023-02-14T06:50:06;97217.59;;;-0.37;100.00
34185;BME280;20454;48.100;11.776;2023-02-14T06:52:32;97216.97;;;-0.32;100.00
34185;BME280;20454;48.100;11.776;2023-02-14T06:54:58;97219.69;;;-0.26;100.00
34185;BME280;20454;48.100;11.776;2023-02-14T06:57:24;97218.03;;;-0.27;100.00
34185;BME280;20454;48.100;11.776;2023-02-14T06:59:49;97226.81;;;-0.18;100.00
34185;BME280;20454;48.100;11.776;2023-02-14T07:02:15;97224.31;;;-0.20;100.00
34185;BME280;20454;48.100;11.776;2023-02-14T07:04:41;97231.03;;;-0.16;100.00
34185;BME280;20454;48.100;11.776;2023-02-14T07:07:06;97224.94;;;-0.18;100.00
34185;BME280;20454;48.100;11.776;2023-02-14T07:09:32;97224.53;;;-0.21;100.00
34185;BME280;20454;48.100;11.776;2023-02-14T07:11:57;97231.06;;;-0.22;100.00
34185;BME280;20454;48.100;11.776;2023-02-14T07:14:23;97231.22;;;-0.17;100.00
34185;BME280;20454;48.100;11.776;2023-02-14T07:16:49;97218.41;;;-0.17;100.00
34185;BME280;20454;48.100;11.776;2023-02-14T07:19:14;97199.06;;;-0.15;100.00
34185;BME280;20454;48.100;11.776;2023-02-14T07:21:40;97210.38;;;-0.06;100.00
34185;BME280;20454;48.100;11.776;2023-02-14T07:24:06;97218.59;;;0.01;100.00
34185;BME280;20454;48.100;11.776;2023-02-14T07:26:32;97226.97;;;0.06;100.00
34185;BME280;20454;48.100;11.776;2023-02-14T07:28:57;97207.66;;;0.01;100.00
34185;BME280;20454;48.100;11.776;2023-02-14T07:31:23;97202.19;;;0.01;100.00
34185;BME280;20454;48.100;11.776;2023-02-14T07:33:50;97202.16;;;0.07;100.00
34185;BME280;20454;48.100;11.776;2023-02-14T07:36:15;97205.94;;;0.06;100.00
34185;BME280;20454;48.100;11.776;2023-02-14T07:38:41;97199.00;;;0.10;100.00
34185;BME280;20454;48.100;11.776;2023-02-14T07:41:07;97209.06;;;0.16;100.00
34185;BME280;20454;48.100;11.776;2023-02-14T07:43:32;97208.03;;;0.11;100.00
34185;BME280;20454;48.100;11.776;2023-02-14T07:46:01;97195.66;;;0.02;100.00
34185;BME280;20454;48.100;11.776;2023-02-14T07:48:28;97195.19;;;0.11;100.00
34185;BME280;20454;48.100;11.776;2023-02-14T07:50:53;97191.41;;;0.12;100.00
34185;BME280;20454;48.100;11.776;2023-02-14T07:53:23;97192.66;;;0.10;100.00
34185;BME280;20454;48.100;11.776;2023-02-14T07:55:49;97195.63;;;0.08;100.00
34185;BME280;20454;48.100;11.776;2023-02-14T07:58:15;97188.06;;;0.10;100.00
34185;BME280;20454;48.100;11.776;2023-02-14T08:00:41;97177.06;;;0.17;100.00
34185;BME280;20454;48.100;11.776;2023-02-14T08:03:06;97181.88;;;0.28;100.00
34185;BME280;20454;48.100;11.776;2023-02-14T08:05:32;97183.50;;;0.35;100.00
34185;BME280;20454;48.100;11.776;2023-02-14T08:07:58;97181.97;;;0.46;100.00
34185;BME280;20454;48.100;11.776;2023-02-14T08:10:23;97188.66;;;0.56;100.00
34185;BME280;20454;48.100;11.776;2023-02-14T08:12:49;97186.53;;;0.65;100.00
34185;BME280;20454;48.100;11.776;2023-02-14T08:15:31;97185.81;;;0.76;100.00
34185;BME280;20454;48.100;11.776;2023-02-14T08:18:17;97179.69;;;0.80;100.00
34185;BME280;20454;48.100;11.776;2023-02-14T08:20:44;97190.59;;;0.87;100.00
34185;BME280;20454;48.100;11.776;2023-02-14T08:23:10;97177.50;;;0.89;100.00
34185;BME280;20454;48.100;11.776;2023-02-14T08:25:36;97185.09;;;0.93;100.00
34185;BME280;20454;48.100;11.776;2023-02-14T08:28:02;97176.19;;;0.98;100.00
34185;BME280;20454;48.100;11.776;2023-02-14T08:30:28;97188.16;;;1.03;100.00
34185;BME280;20454;48.100;11.776;2023-02-14T08:32:54;97190.25;;;1.08;100.00
34185;BME280;20454;48.100;11.776;2023-02-14T08:35:20;97187.50;;;1.08;100.00
34185;BME280;20454;48.100;11.776;2023-02-14T08:37:46;97173.78;;;1.08;100.00
34185;BME280;20454;48.100;11.776;2023-02-14T08:40:11;97177.94;;;1.17;100.00
34185;BME280;20454;48.100;11.776;2023-02-14T08:42:37;97184.84;;;1.26;100.00
34185;BME280;20454;48.100;11.776;2023-02-14T08:45:03;97188.19;;;1.28;99.80
34185;BME280;20454;48.100;11.776;2023-02-14T08:47:31;97178.91;;;1.29;99.53
34185;BME280;20454;48.100;11.776;2023-02-14T08:50:01;97190.25;;;1.32;99.29
34185;BME280;20454;48.100;11.776;2023-02-14T08:52:27;97189.38;;;1.38;99.01
34185;BME280;20454;48.100;11.776;2023-02-14T08:54:52;97181.75;;;1.40;100.00
34185;BME280;20454;48.100;11.776;2023-02-14T08:57:18;97185.66;;;1.51;100.00
34185;BME280;20454;48.100;11.776;2023-02-14T08:59:44;97179.97;;;1.52;98.60
34185;BME280;20454;48.100;11.776;2023-02-14T09:02:13;97190.03;;;1.58;98.17
34185;BME280;20454;48.100;11.776;2023-02-14T09:04:38;97178.69;;;1.55;97.72
34185;BME280;20454;48.100;11.776;2023-02-14T09:07:10;97184.81;;;1.75;98.18
34185;BME280;20454;48.100;11.776;2023-02-14T09:09:36;97180.25;;;1.87;97.23
34185;BME280;20454;48.100;11.776;2023-02-14T09:12:06;97171.94;;;1.93;96.19
34185;BME280;20454;48.100;11.776;2023-02-14T09:14:37;97180.94;;;2.00;95.87
34185;BME280;20454;48.100;11.776;2023-02-14T09:17:04;97181.03;;;2.12;95.58
34185;BME280;20454;48.100;11.776;2023-02-14T09:19:31;97186.84;;;2.22;95.56
34185;BME280;20454;48.100;11.776;2023-02-14T09:21:57;97186.81;;;2.40;95.66
34185;BME280;20454;48.100;11.776;2023-02-14T09:24:23;97174.59;;;2.54;94.75
34185;BME280;20454;48.100;11.776;2023-02-14T09:26:49;97179.09;;;2.66;94.21
34185;BME280;20454;48.100;11.776;2023-02-14T09:29:14;97184.63;;;2.78;92.94
34185;BME280;20454;48.100;11.776;2023-02-14T09:31:40;97183.94;;;2.82;91.46
34185;BME280;20454;48.100;11.776;2023-02-14T09:34:06;97174.50;;;2.90;90.46
34185;BME280;20454;48.100;11.776;2023-02-14T09:36:32;97189.13;;;3.02;92.07
34185;BME280;20454;48.100;11.776;2023-02-14T09:39:16;97175.41;;;3.13;90.92
34185;BME280;20454;48.100;11.776;2023-02-14T09:42:03;97179.91;;;3.37;91.49
34185;BME280;20454;48.100;11.776;2023-02-14T09:44:49;97178.50;;;3.58;91.07
34185;BME280;20454;48.100;11.776;2023-02-14T09:47:38;97184.03;;;3.81;89.39
34185;BME280;20454;48.100;11.776;2023-02-14T09:50:32;97177.69;;;3.92;87.80
34185;BME280;20454;48.100;11.776;2023-02-14T09:53:05;97165.59;;;3.93;86.72
34185;BME280;20454;48.100;11.776;2023-02-14T09:55:42;97167.97;;;4.01;87.21
34185;BME280;20454;48.100;11.776;2023-02-14T09:58:15;97167.75;;;4.02;86.91
34185;BME280;20454;48.100;11.776;2023-02-14T10:00:47;97166.66;;;4.03;86.27
34185;BME280;20454;48.100;11.776;2023-02-14T10:03:36;97167.97;;;4.01;85.70
34185;BME280;20454;48.100;11.776;2023-02-14T10:09:04;97163.81;;;3.98;85.57
34185;BME280;20454;48.100;11.776;2023-02-14T10:11:32;97158.75;;;3.95;83.49
34185;BME280;20454;48.100;11.776;2023-02-14T10:16:54;97167.13;;;4.12;85.10
34185;BME280;20454;48.100;11.776;2023-02-14T10:19:31;97159.47;;;4.14;84.81
34185;BME280;20454;48.100;11.776;2023-02-14T10:22:18;97148.19;;;4.27;84.75
34185;BME280;20454;48.100;11.776;2023-02-14T10:24:54;97151.22;;;4.64;83.99
34185;BME280;20454;48.100;11.776;2023-02-14T10:27:32;97151.41;;;5.02;83.04
34185;BME280;20454;48.100;11.776;2023-02-14T10:29:58;97145.88;;;5.47;81.23
34185;BME280;20454;48.100;11.776;2023-02-14T10:32:30;97145.03;;;5.96;80.06
34185;BME280;20454;48.100;11.776;2023-02-14T10:35:00;97142.50;;;6.11;77.12
34185;BME280;20454;48.100;11.776;2023-02-14T10:45:40;97131.00;;;5.97;75.93
34185;BME280;20454;48.100;11.776;2023-02-14T10:48:46;97134.75;;;5.91;76.26
34185;BME280;20454;48.100;11.776;2023-02-14T10:54:17;97133.59;;;6.25;75.60
34185;BME280;20454;48.100;11.776;2023-02-14T10:57:05;97129.88;;;6.58;74.59
34185;BME280;20454;48.100;11.776;2023-02-14T10:59:44;97115.59;;;6.66;74.04
34185;BME280;20454;48.100;11.776;2023-02-14T11:02:14;97120.09;;;6.72;71.97
34185;BME280;20454;48.100;11.776;2023-02-14T11:04:41;97122.31;;;6.70;72.04
34185;BME280;20454;48.100;11.776;2023-02-14T11:07:14;97110.03;;;6.61;72.29
34185;BME280;20454;48.100;11.776;2023-02-14T11:09:40;97109.25;;;6.65;72.49
34185;BME280;20454;48.100;11.776;2023-02-14T11:12:06;97103.25;;;6.95;71.75
34185;BME280;20454;48.100;11.776;2023-02-14T11:14:34;97099.53;;;7.11;70.25
34185;BME280;20454;48.100;11.776;2023-02-14T11:17:26;97097.44;;;7.23;69.50
34185;BME280;20454;48.100;11.776;2023-02-14T11:20:02;97099.00;;;7.40;70.06
34185;BME280;20454;48.100;11.776;2023-02-14T11:22:32;97099.63;;;7.52;68.39
34185;BME280;20454;48.100;11.776;2023-02-14T11:25:04;97085.28;;;7.60;68.27
34185;BME280;20454;48.100;11.776;2023-02-14T11:27:30;97090.38;;;7.73;67.27
34185;BME280;20454;48.100;11.776;2023-02-14T11:29:57;97070.53;;;7.86;67.18
34185;BME280;20454;48.100;11.776;2023-02-14T11:32:24;97070.63;;;8.01;66.41
34185;BME280;20454;48.100;11.776;2023-02-14T11:35:04;97072.63;;;8.11;65.01
34185;BME280;20454;48.100;11.776;2023-02-14T11:37:38;97065.47;;;8.15;66.29
34185;BME280;20454;48.100;11.776;2023-02-14T11:40:09;97049.66;;;8.15;66.44
34185;BME280;20454;48.100;11.776;2023-02-14T11:42:47;97053.00;;;8.17;65.94
34185;BME280;20454;48.100;11.776;2023-02-14T11:45:37;97048.28;;;8.18;66.40
34185;BME280;20454;48.100;11.776;2023-02-14T11:48:24;97049.09;;;8.13;65.25
34185;BME280;20454;48.100;11.776;2023-02-14T11:51:04;97029.34;;;8.05;67.14
34185;BME280;20454;48.100;11.776;2023-02-14T11:53:48;97026.56;;;8.05;66.53
34185;BME280;20454;48.100;11.776;2023-02-14T11:56:16;97034.63;;;8.06;66.90
34185;BME280;20454;48.100;11.776;2023-02-14T11:58:58;97029.38;;;8.10;67.10
34185;BME280;20454;48.100;11.776;2023-02-14T12:01:32;97024.44;;;8.17;66.96
34185;BME280;20454;48.100;11.776;2023-02-14T12:04:05;97027.53;;;8.20;68.07
34185;BME280;20454;48.100;11.776;2023-02-14T12:06:33;97016.81;;;8.34;67.94
34185;BME280;20454;48.100;11.776;2023-02-14T12:11:59;97011.94;;;8.86;66.29
34185;BME280;20454;48.100;11.776;2023-02-14T12:14:28;97018.38;;;9.16;65.53
34185;BME280;20454;48.100;11.776;2023-02-14T12:17:04;97014.50;;;9.52;64.46
34185;BME280;20454;48.100;11.776;2023-02-14T12:19:45;97001.41;;;9.92;62.94
34185;BME280;20454;48.100;11.776;2023-02-14T12:22:18;97007.09;;;10.36;61.49
34185;BME280;20454;48.100;11.776;2023-02-14T12:25:01;97000.84;;;10.69;58.84
34185;BME280;20454;48.100;11.776;2023-02-14T12:30:20;96984.25;;;11.36;56.83
34185;BME280;20454;48.100;11.776;2023-02-14T12:32:51;96979.38;;;11.51;56.06
34185;BME280;20454;48.100;11.776;2023-02-14T12:52:20;96977.38;;;12.37;53.58
34185;BME280;20454;48.100;11.776;2023-02-14T12:57:56;96956.59;;;12.48;52.61
34185;BME280;20454;48.100;11.776;2023-02-14T13:00:37;96968.53;;;12.54;53.36
34185;BME280;20454;48.100;11.776;2023-02-14T13:03:41;96956.59;;;12.48;53.13
34185;BME280;20454;48.100;11.776;2023-02-14T13:06:34;96947.41;;;12.24;54.30
34185;BME280;20454;48.100;11.776;2023-02-14T13:09:33;96948.00;;;11.98;54.53
34185;BME280;20454;48.100;11.776;2023-02-14T13:12:22;96942.34;;;11.79;55.76
34185;BME280;20454;48.100;11.776;2023-02-14T13:17:57;96932.97;;;11.37;57.22
34185;BME280;20454;48.100;11.776;2023-02-14T13:20:43;96936.34;;;11.34;57.70
34185;BME280;20454;48.100;11.776;2023-02-14T13:23:41;96939.66;;;11.36;57.87
34185;BME280;20454;48.100;11.776;2023-02-14T13:26:19;96929.19;;;11.23;57.61
34185;BME280;20454;48.100;11.776;2023-02-14T13:29:10;96932.06;;;11.13;59.08
34185;BME280;20454;48.100;11.776;2023-02-14T13:31:38;96935.78;;;10.98;59.25
34185;BME280;20454;48.100;11.776;2023-02-14T13:34:36;96937.84;;;10.83;60.10
34185;BME280;20454;48.100;11.776;2023-02-14T13:37:08;96931.78;;;10.76;61.05
34185;BME280;20454;48.100;11.776;2023-02-14T13:42:04;96932.63;;;10.71;61.16
34185;BME280;20454;48.100;11.776;2023-02-14T13:44:48;96932.91;;;10.75;61.41
34185;BME280;20454;48.100;11.776;2023-02-14T13:47:24;96920.31;;;10.82;60.86
34185;BME280;20454;48.100;11.776;2023-02-14T13:49:56;96930.78;;;10.95;61.18
34185;BME280;20454;48.100;11.776;2023-02-14T13:52:47;96920.06;;;11.17;59.50
34185;BME280;20454;48.100;11.776;2023-02-14T13:55:20;96922.41;;;11.34;59.50
34185;BME280;20454;48.100;11.776;2023-02-14T13:58:05;96920.78;;;11.61;58.65
34185;BME280;20454;48.100;11.776;2023-02-14T14:03:03;96908.72;;;11.94;57.46
34185;BME280;20454;48.100;11.776;2023-02-14T14:10:53;96903.25;;;12.08;56.19
34185;BME280;20454;48.100;11.776;2023-02-14T14:13:56;96906.63;;;12.05;56.73
34185;BME280;20454;48.100;11.776;2023-02-14T14:22:09;96897.66;;;11.84;57.30
34185;BME280;20454;48.100;11.776;2023-02-14T14:24:41;96906.63;;;11.81;56.83
34185;BME280;20454;48.100;11.776;2023-02-14T14:27:19;96902.50;;;11.74;56.69
34185;BME280;20454;48.100;11.776;2023-02-14T14:29:58;96904.06;;;11.61;56.97
34185;BME280;20454;48.100;11.776;2023-02-14T14:32:38;96897.47;;;11.47;57.34
34185;BME280;20454;48.100;11.776;2023-02-14T14:35:18;96886.19;;;11.34;58.02
34185;BME280;20454;48.100;11.776;2023-02-14T14:37:49;96894.13;;;11.17;58.49
34185;BME280;20454;48.100;11.776;2023-02-14T14:42:50;96890.13;;;10.61;60.00
34185;BME280;20454;48.100;11.776;2023-02-14T14:45:26;96896.44;;;10.28;60.80
34185;BME280;20454;48.100;11.776;2023-02-14T14:47:55;96879.09;;;9.87;62.63
34185;BME280;20454;48.100;11.776;2023-02-14T14:50:28;96892.28;;;9.47;64.50
34185;BME280;20454;48.100;11.776;2023-02-14T14:53:03;96884.00;;;9.12;65.42
34185;BME280;20454;48.100;11.776;2023-02-14T14:55:33;96885.13;;;8.76;67.15
34185;BME280;20454;48.100;11.776;2023-02-14T14:58:04;96883.44;;;8.45;68.36
34185;BME280;20454;48.100;11.776;2023-02-14T15:00:36;96894.41;;;8.15;70.44
34185;BME280;20454;48.100;11.776;2023-02-14T15:11:05;96883.72;;;7.16;74.68
34185;BME280;20454;48.100;11.776;2023-02-14T15:13:48;96885.50;;;6.95;76.44
34185;BME280;20454;48.100;11.776;2023-02-14T15:18:46;96880.53;;;6.61;77.91
34185;BME280;20454;48.100;11.776;2023-02-14T15:21:13;96882.09;;;6.47;78.44
34185;BME280;20454;48.100;11.776;2023-02-14T15:23:41;96890.25;;;6.37;79.67
34185;BME280;20454;48.100;11.776;2023-02-14T15:26:17;96885.16;;;6.24;80.31
34185;BME280;20454;48.100;11.776;2023-02-14T15:28:43;96887.56;;;6.15;81.24
34185;BME280;20454;48.100;11.776;2023-02-14T15:31:09;96883.59;;;6.06;81.98
34185;BME280;20454;48.100;11.776;2023-02-14T15:33:35;96879.38;;;5.99;83.34
34185;BME280;20454;48.100;11.776;2023-02-14T15:36:05;96885.34;;;5.91;83.75
34185;BME280;20454;48.100;11.776;2023-02-14T15:38:35;96884.47;;;5.85;83.77
34185;BME280;20454;48.100;11.776;2023-02-14T15:41:04;96890.16;;;5.79;84.42
34185;BME280;20454;48.100;11.776;2023-02-14T15:43:33;96890.66;;;5.76;84.80
34185;BME280;20454;48.100;11.776;2023-02-14T18:00:45;96951.44;;;2.17;100.00
34185;BME280;20454;48.100;11.776;2023-02-14T18:03:11;96936.97;;;2.10;100.00
34185;BME280;20454;48.100;11.776;2023-02-14T18:05:37;96944.97;;;2.12;100.00
34185;BME280;20454;48.100;11.776;2023-02-14T18:08:03;96941.88;;;2.08;100.00
34185;BME280;20454;48.100;11.776;2023-02-14T18:10:28;96943.53;;;2.09;100.00
34185;BME280;20454;48.100;11.776;2023-02-14T18:12:54;96939.13;;;2.08;100.00
34185;BME280;20454;48.100;11.776;2023-02-14T18:15:20;96942.09;;;2.07;100.00
34185;BME280;20454;48.100;11.776;2023-02-14T18:17:49;96937.94;;;2.04;100.00
34185;BME280;20454;48.100;11.776;2023-02-14T18:20:15;96937.09;;;2.04;100.00
34185;BME280;20454;48.100;11.776;2023-02-14T18:22:41;96939.84;;;2.04;100.00
34185;BME280;20454;48.100;11.776;2023-02-14T18:25:07;96935.66;;;2.01;100.00
34185;BME280;20454;48.100;11.776;2023-02-14T18:27:33;96935.28;;;1.98;100.00
34185;BME280;20454;48.100;11.776;2023-02-14T18:29:59;96935.97;;;1.93;100.00
34185;BME280;20454;48.100;11.776;2023-02-14T18:32:25;96931.41;;;1.87;100.00
34185;BME280;20454;48.100;11.776;2023-02-14T18:34:50;96930.44;;;1.82;100.00
34185;BME280;20454;48.100;11.776;2023-02-14T18:37:17;96918.75;;;1.75;100.00
34185;BME280;20454;48.100;11.776;2023-02-14T18:39:43;96928.78;;;1.81;100.00
34185;BME280;20454;48.100;11.776;2023-02-14T18:42:09;96938.09;;;1.80;100.00
34185;BME280;20454;48.100;11.776;2023-02-14T18:44:35;96926.97;;;1.75;100.00
34185;BME280;20454;48.100;11.776;2023-02-14T18:47:01;96934.59;;;1.73;100.00
34185;BME280;20454;48.100;11.776;2023-02-14T18:49:27;96929.56;;;1.70;100.00
34185;BME280;20454;48.100;11.776;2023-02-14T21:01:17;96877.66;;;0.55;100.00
34185;BME280;20454;48.100;11.776;2023-02-14T21:03:47;96864.03;;;0.49;100.00
34185;BME280;20454;48.100;11.776;2023-02-14T21:06:16;96863.66;;;0.45;100.00
34185;BME280;20454;48.100;11.776;2023-02-14T21:08:43;96861.19;;;0.37;100.00
34185;BME280;20454;48.100;11.776;2023-02-14T21:11:11;96861.72;;;0.28;100.00
34185;BME280;20454;48.100;11.776;2023-02-14T21:13:38;96862.31;;;0.30;100.00
34185;BME280;20454;48.100;11.776;2023-02-14T21:16:07;96850.41;;;0.24;100.00
34185;BME280;20454;48.100;11.776;2023-02-14T21:18:34;96855.88;;;0.24;100.00
34185;BME280;20454;48.100;11.776;2023-02-14T21:21:11;96863.41;;;0.29;100.00
34185;BME280;20454;48.100;11.776;2023-02-14T21:23:38;96854.94;;;0.30;100.00
34185;BME280;20454;48.100;11.776;2023-02-14T21:26:04;96859.97;;;0.33;100.00
34185;BME280;20454;48.100;11.776;2023-02-14T21:28:30;96853.22;;;0.36;100.00
34185;BME280;20454;48.100;11.776;2023-02-14T21:31:22;96847.97;;;0.34;100.00
34185;BME280;20454;48.100;11.776;2023-02-14T21:33:58;96845.84;;;0.36;100.00
34185;BME280;20454;48.100;11.776;2023-02-14T21:36:27;96831.16;;;0.31;100.00
34185;BME280;20454;48.100;11.776;2023-02-14T21:38:55;96846.69;;;0.37;100.00
34185;BME280;20454;48.100;11.776;2023-02-14T21:41:25;96837.03;;;0.34;100.00
34185;BME280;20454;48.100;11.776;2023-02-14T21:43:54;96836.81;;;0.36;100.00
34185;BME280;20454;48.100;11.776;2023-02-14T21:46:29;96841.22;;;0.37;100.00
34185;BME280;20454;48.100;11.776;2023-02-14T21:49:00;96835.75;;;0.37;100.00
34185;BME280;20454;48.100;11.776;2023-02-14T21:51:46;96838.00;;;0.40;100.00
34185;BME280;20454;48.100;11.776;2023-02-14T21:54:12;96831.94;;;0.38;100.00
34185;BME280;20454;48.100;11.776;2023-02-14T21:56:39;96823.13;;;0.36;100.00
34185;BME280;20454;48.100;11.776;2023-02-14T21:59:08;96835.53;;;0.38;100.00
34185;BME280;20454;48.100;11.776;2023-02-14T22:01:38;96834.19;;;0.41;100.00
34185;BME280;20454;48.100;11.776;2023-02-14T22:04:06;96837.63;;;0.36;100.00
34185;BME280;20454;48.100;11.776;2023-02-14T22:06:35;96830.09;;;0.32;100.00
34185;BME280;20454;48.100;11.776;2023-02-14T22:09:02;96830.56;;;0.29;100.00
34185;BME280;20454;48.100;11.776;2023-02-14T22:11:29;96829.31;;;0.25;100.00
34185;BME280;20454;48.100;11.776;2023-02-14T22:13:55;96833.97;;;0.24;100.00
34185;BME280;20454;48.100;11.776;2023-02-14T22:16:22;96824.31;;;0.22;100.00
34185;BME280;20454;48.100;11.776;2023-02-14T22:18:48;96826.22;;;0.21;100.00
34185;BME280;20454;48.100;11.776;2023-02-14T22:21:21;96815.47;;;0.20;100.00
34185;BME280;20454;48.100;11.776;2023-02-14T22:23:47;96818.22;;;0.20;100.00
34185;BME280;20454;48.100;11.776;2023-02-14T22:26:20;96815.94;;;0.17;100.00